Terminal Aerodrome Forecast
Issued by NWS Central Illinois

Home | Current Version | Previous Version | Text Only | Print | Product List | Glossary On
Versions: 1 2 3 4 5 6 7 8 9 10 11 12 13 14 15 16 17
030
FTUS43 KILX 032336
TAFPIA
TAF
KPIA 032336Z 0400/0424 08005KT P6SM BKN120
     FM040800 13004KT P6SM VCSH OVC080
     FM041000 14004KT 5SM -SN OVC030
     FM041400 14005KT 1SM -SN BR OVC008
     FM041800 16006KT 1SM -SNRA OVC004
     FM042000 17005KT P6SM OVC008=

USA.gov is the U.S. government's official web portal to all federal, state and local government web resources and services.